»·PEaware :: WAT540 KSAN-KSMO

WAT540 :: KSAN-KSMO

FLIGHT INFORMATION

Flight Status: Arrived
Operator:
Walker Air Transport
More flights by this operator :: More flights under this callsign
Pilot: Michael R. (33632)
Aircraft: PIPER PA-30 TWIN COMANCHE
(PA30)
More flights by this aircraft type
Origin: KSAN San Diego Intl-Lindbergh
United States
Destination: KSMO Santa Monica Mun
United States
More flights between these airports :: More routes between these airports
Route:
File this flight plan on PilotEdge
Remarks:
Altitude:
(Current/Filed)
4,500ft
Speed:
(Current/Filed)
160kts
Departed: 14-Feb-21 01:44 AM
Arrived: 14-Feb-21 02:30 AM
Distance/Time
Traveled:
100nm/0:46
Distance/Time
To Go:
Arrived

Flight Plot

Page will automatically refresh every two minutes.

Flight plan parsing failed; only flown route is shown


Map Options




Map Legend


Flown Route
Filed Route
Departure Airport
Arrival Airport
Navaid (VOR, NDB)
Fix

Horizontal Profiles

Position Reports

Time Latitude Longitude Heading Altitude Ground
Speed
14-Feb-21 01:12 32.733251 -117.177732 17 20ft 0kts
14-Feb-21 01:13 32.733251 -117.177732 17 20ft 0kts
14-Feb-21 01:14 32.733251 -117.177732 17 20ft 0kts
14-Feb-21 01:15 32.733251 -117.177732 17 20ft 0kts
14-Feb-21 01:16 32.733251 -117.177732 17 20ft 0kts
14-Feb-21 01:17 32.733251 -117.177732 17 20ft 0kts
14-Feb-21 01:18 32.733251 -117.177732 17 20ft 0kts
14-Feb-21 01:19 32.733251 -117.177732 17 20ft 0kts
14-Feb-21 01:20 32.733251 -117.177732 17 20ft 0kts
14-Feb-21 01:21 32.733251 -117.177732 17 20ft 0kts
14-Feb-21 01:22 32.733251 -117.177732 17 20ft 0kts
14-Feb-21 01:23 32.733251 -117.177732 17 20ft 0kts
14-Feb-21 01:24 32.733251 -117.177732 17 20ft 0kts
14-Feb-21 01:25 32.733251 -117.177732 17 20ft 0kts
14-Feb-21 01:26 32.733251 -117.177732 17 20ft 0kts
14-Feb-21 01:27 32.733251 -117.177732 17 20ft 0kts
14-Feb-21 01:28 32.733251 -117.177732 17 20ft 0kts
14-Feb-21 01:29 32.733251 -117.177732 17 20ft 0kts
14-Feb-21 01:30 32.733251 -117.177732 17 20ft 0kts
14-Feb-21 01:31 32.733251 -117.177732 17 20ft 0kts
14-Feb-21 01:32 32.733251 -117.177732 17 20ft 0kts
14-Feb-21 01:33 32.733251 -117.177732 17 20ft 0kts
14-Feb-21 01:34 32.733251 -117.177732 17 20ft 0kts
14-Feb-21 01:35 32.733251 -117.177732 17 20ft 0kts
14-Feb-21 01:36 32.733251 -117.177732 17 20ft 0kts
14-Feb-21 01:37 32.733251 -117.177732 17 20ft 0kts
14-Feb-21 01:38 32.733251 -117.177732 17 20ft 0kts
14-Feb-21 01:39 32.733257 -117.177730 20 20ft 0kts
14-Feb-21 01:40 32.732298 -117.176851 189 20ft 5kts
14-Feb-21 01:41 32.732171 -117.176800 155 20ft 0kts
14-Feb-21 01:42 32.730503 -117.175272 182 20ft 14kts
14-Feb-21 01:43 32.734649 -117.195785 278 548ft 93kts
14-Feb-21 01:44 32.741712 -117.225520 290 1667ft 99kts
14-Feb-21 01:45 32.751116 -117.261662 286 2473ft 121kts
14-Feb-21 01:46 32.760450 -117.300229 286 3434ft 122kts
14-Feb-21 01:47 32.783173 -117.329741 322 4215ft 132kts
14-Feb-21 01:48 32.813717 -117.357213 323 4515ft 146kts
14-Feb-21 01:49 32.847419 -117.387193 323 4512ft 154kts
14-Feb-21 01:50 32.881992 -117.417963 323 4511ft 156kts
14-Feb-21 01:51 32.907534 -117.440705 323 4511ft 156kts
14-Feb-21 01:52 32.942222 -117.471650 323 4511ft 156kts
14-Feb-21 01:53 32.977093 -117.502753 323 4511ft 156kts
14-Feb-21 01:54 33.011922 -117.533881 323 4509ft 156kts
14-Feb-21 01:55 33.046677 -117.564951 323 4511ft 156kts
14-Feb-21 01:56 33.068369 -117.584355 323 4511ft 156kts
14-Feb-21 01:57 33.103194 -117.615459 323 4511ft 156kts
14-Feb-21 01:58 33.137918 -117.646573 323 4512ft 156kts
14-Feb-21 01:59 33.172726 -117.677778 322 4511ft 156kts
14-Feb-21 02:00 33.207534 -117.709043 322 4511ft 156kts
14-Feb-21 02:01 33.242192 -117.740208 322 4511ft 156kts
14-Feb-21 02:02 33.276965 -117.771514 322 4511ft 156kts
14-Feb-21 02:03 33.311739 -117.802851 322 4511ft 156kts
14-Feb-21 02:04 33.346386 -117.834105 322 4511ft 156kts
14-Feb-21 02:06 33.381132 -117.865481 322 4511ft 156kts
14-Feb-21 02:07 33.415902 -117.896919 322 4511ft 156kts
14-Feb-21 02:08 33.450585 -117.928292 322 4511ft 156kts
14-Feb-21 02:09 33.485301 -117.959736 322 4511ft 156kts
14-Feb-21 02:10 33.519024 -117.992561 318 4511ft 156kts
14-Feb-21 02:11 33.551791 -118.027003 318 4511ft 157kts
14-Feb-21 02:12 33.584773 -118.061782 318 4511ft 158kts
14-Feb-21 02:13 33.617929 -118.096800 318 4511ft 158kts
14-Feb-21 02:14 33.651015 -118.131939 318 4511ft 158kts
14-Feb-21 02:15 33.685599 -118.164765 322 4511ft 158kts
14-Feb-21 02:16 33.720049 -118.197829 321 4511ft 158kts
14-Feb-21 02:17 33.754540 -118.231029 321 4511ft 158kts
14-Feb-21 02:18 33.788950 -118.264183 321 4511ft 158kts
14-Feb-21 02:19 33.822032 -118.296062 321 4511ft 151kts
14-Feb-21 02:20 33.854258 -118.327101 321 4511ft 147kts
14-Feb-21 02:21 33.886506 -118.357289 322 4511ft 147kts
14-Feb-21 02:22 33.920182 -118.385332 331 4511ft 147kts
14-Feb-21 02:22 33.949866 -118.405652 330 4510ft 147kts
14-Feb-21 02:23 33.983398 -118.428759 329 3896ft 123kts
14-Feb-21 02:25 34.014462 -118.454929 286 2203ft 116kts
14-Feb-21 02:26 34.015296 -118.497306 267 2050ft 135kts
14-Feb-21 02:26 33.995708 -118.512132 137 1066ft 117kts
14-Feb-21 02:27 33.993884 -118.481606 66 474ft 78kts
14-Feb-21 02:28 34.007591 -118.461172 46 296ft 80kts
14-Feb-21 02:29 34.018650 -118.448339 333 155ft 8kts
14-Feb-21 02:30 34.017641 -118.450297 222 146ft 15kts
14-Feb-21 02:31 34.016632 -118.452029 324 140ft 3kts
14-Feb-21 02:32 34.016689 -118.451927 208 140ft 0kts
14-Feb-21 02:33 34.016689 -118.451927 208 140ft 0kts
14-Feb-21 02:34 34.016689 -118.451927 208 140ft 0kts

Navigation Log

Ident Type
Flight plan parsing failed, navigation log unavailable